Time;durP1;ratioP1;P1;durP2;ratioP2;P2;SDS_P1;SDS_P2;PMS_P1;PMS_P2;Temp;Humidity;BMP_temperature;BMP_pressure;BME280_temperature;BME280_humidity;BME280_pressure;Samples;Min_cycle;Max_cycle;Signal;HPM_P1;HPM_P2
2023/09/03 00:01:19;;;;;;;2.10;1.00;;;;;;;18.23;87.91;101690.16;4938191;29;20055;-65
2023/09/03 00:03:45;;;;;;;0.73;0.70;;;;;;;18.27;87.94;101693.69;4932630;29;20137;-66
2023/09/03 00:06:10;;;;;;;1.27;0.77;;;;;;;18.30;87.88;101714.75;4932133;29;20486;-65
2023/09/03 00:08:36;;;;;;;1.98;0.73;;;;;;;18.37;87.12;101717.53;4934413;29;20445;-65
2023/09/03 00:11:01;;;;;;;1.02;0.70;;;;;;;18.36;87.34;101729.59;4922320;29;20094;-65
2023/09/03 00:13:27;;;;;;;1.92;1.25;;;;;;;18.40;87.19;101730.38;4937390;29;20227;-66
2023/09/03 00:15:52;;;;;;;1.42;0.90;;;;;;;18.42;86.99;101745.25;4956858;28;20038;-66
2023/09/03 00:18:18;;;;;;;4.22;0.95;;;;;;;18.42;86.99;101749.88;4986318;28;20397;-66
2023/09/03 00:20:55;;;;;;;1.08;0.98;;;;;;;18.40;87.03;101749.50;4994898;28;20056;-65
2023/09/03 00:23:21;;;;;;;0.60;0.55;;;;;;;18.41;87.29;101737.41;5025928;28;20116;-66
2023/09/03 00:25:46;;;;;;;0.98;0.88;;;;;;;18.44;86.70;101728.50;5034010;28;20117;-65
2023/09/03 00:28:11;;;;;;;0.95;0.63;;;;;;;18.45;86.92;101739.03;5035233;28;20033;-65
2023/09/03 00:30:37;;;;;;;3.55;0.93;;;;;;;18.44;87.14;101737.47;5029686;28;20042;-66
2023/09/03 00:33:02;;;;;;;1.55;0.98;;;;;;;18.45;86.93;101728.13;5015138;28;20030;-66
2023/09/03 00:35:28;;;;;;;2.17;1.00;;;;;;;18.45;86.81;101716.41;5033677;28;20048;-65
2023/09/03 00:37:53;;;;;;;1.25;0.75;;;;;;;18.29;87.29;101702.28;5000458;28;20075;-66
2023/09/03 00:40:19;;;;;;;2.28;0.82;;;;;;;18.26;86.77;101686.66;5037347;28;20044;-66
2023/09/03 00:42:45;;;;;;;0.95;0.82;;;;;;;18.22;87.60;101689.38;5026885;28;20075;-65
2023/09/03 00:45:10;;;;;;;1.50;1.10;;;;;;;18.22;87.40;101696.75;5004546;28;20156;-64
2023/09/03 00:47:36;;;;;;;2.13;0.90;;;;;;;18.19;87.36;101697.53;5009917;28;20480;-66
2023/09/03 00:50:03;;;;;;;1.23;0.90;;;;;;;18.17;87.30;101706.09;5008156;28;20565;-65
2023/09/03 00:52:29;;;;;;;0.80;0.60;;;;;;;18.15;87.14;101707.63;5008637;28;20033;-65
2023/09/03 00:54:54;;;;;;;1.45;0.80;;;;;;;18.12;87.69;101705.69;5030842;28;20040;-64
2023/09/03 00:57:20;;;;;;;0.80;0.65;;;;;;;18.10;87.67;101722.41;5017227;28;20029;-64
2023/09/03 00:59:46;;;;;;;2.47;1.20;;;;;;;18.11;87.73;101706.84;5007538;28;20427;-66
2023/09/03 01:02:14;;;;;;;4.53;1.15;;;;;;;18.08;87.83;101710.31;5014081;28;20021;-65
2023/09/03 01:04:39;;;;;;;0.93;0.68;;;;;;;18.07;88.15;101711.47;5013628;28;20040;-65
2023/09/03 01:07:07;;;;;;;2.28;1.00;;;;;;;18.03;88.11;101723.16;5001843;28;20466;-66
2023/09/03 01:09:33;;;;;;;1.88;1.02;;;;;;;18.07;88.15;101714.19;5004994;28;20080;-66
2023/09/03 01:12:19;;;;;;;0.40;0.40;;;;;;;18.10;88.03;101721.63;5000967;28;20414;-65
2023/09/03 01:14:59;;;;;;;0.90;0.80;;;;;;;18.15;87.50;101718.53;5022162;28;20060;-65
2023/09/03 01:17:46;;;;;;;2.13;1.10;;;;;;;18.03;88.24;101722.38;5003056;28;20092;-64
2023/09/03 01:20:41;;;;;;;0.95;0.70;;;;;;;18.04;88.30;101718.47;5029453;28;20484;-64
2023/09/03 01:23:10;;;;;;;1.35;0.75;;;;;;;18.01;88.12;101717.28;4999391;28;20147;-65
2023/09/03 01:25:54;;;;;;;1.23;0.98;;;;;;;18.01;88.05;101719.22;4999041;28;20774;-65
2023/09/03 01:28:25;;;;;;;0.98;0.75;;;;;;;17.99;88.22;101705.97;5028682;28;20036;-66
2023/09/03 01:30:52;;;;;;;;;;;;;;;17.96;88.16;101705.97;5017350;28;20052;-64
2023/09/03 01:33:18;;;;;;;2.60;0.90;;;;;;;17.94;88.47;101711.78;5016799;28;19920;-65
2023/09/03 01:35:44;;;;;;;3.15;1.25;;;;;;;17.88;88.21;101699.69;5014891;28;20033;-65
2023/09/03 01:38:10;;;;;;;2.40;1.02;;;;;;;17.84;88.45;101707.03;5040241;28;20025;-63
2023/09/03 01:40:38;;;;;;;0.95;0.85;;;;;;;17.83;88.23;101718.31;5014797;28;20080;-65
2023/09/03 01:43:04;;;;;;;1.10;0.73;;;;;;;17.81;88.71;101707.00;5012764;28;20727;-65
2023/09/03 01:45:45;;;;;;;1.02;0.77;;;;;;;17.79;88.60;101701.13;5012879;28;20071;-65
2023/09/03 01:48:27;;;;;;;1.05;0.80;;;;;;;17.72;88.85;101699.16;5027685;28;20024;-65
2023/09/03 01:51:04;;;;;;;1.52;0.80;;;;;;;17.74;88.74;101694.13;5006188;28;20037;-65
2023/09/03 01:53:42;;;;;;;1.00;0.70;;;;;;;17.74;88.87;101688.66;5012806;28;20124;-65
2023/09/03 01:56:11;;;;;;;1.50;1.00;;;;;;;17.75;88.64;101694.91;5029232;28;20066;-65
2023/09/03 01:58:40;;;;;;;4.38;1.08;;;;;;;17.72;89.14;101701.09;5018581;28;20112;-64
2023/09/03 02:01:06;;;;;;;1.13;0.88;;;;;;;17.75;88.72;101690.22;5013972;28;20037;-65
2023/09/03 02:03:33;;;;;;;1.92;1.02;;;;;;;17.65;89.07;101685.47;5020504;28;20128;-65
2023/09/03 02:05:58;;;;;;;2.05;0.90;;;;;;;17.63;89.33;101693.25;5028027;28;20480;-66
2023/09/03 02:08:25;;;;;;;2.05;1.05;;;;;;;17.63;89.64;101695.19;5006956;28;20080;-64
2023/09/03 02:10:51;;;;;;;0.65;0.57;;;;;;;17.59;89.06;101678.81;5033423;28;20029;-64
2023/09/03 02:13:19;;;;;;;1.25;1.00;;;;;;;17.48;89.55;101668.97;5018771;28;20717;-65
2023/09/03 02:15:46;;;;;;;0.90;0.80;;;;;;;17.54;89.19;101667.47;5026802;28;20045;-64
2023/09/03 02:18:11;;;;;;;2.72;1.17;;;;;;;17.43;89.02;101678.25;5015932;28;20385;-64
2023/09/03 02:20:37;;;;;;;1.10;0.70;;;;;;;17.25;90.30;101671.09;5009057;28;20033;-64
2023/09/03 02:23:02;;;;;;;3.20;0.75;;;;;;;17.25;90.79;101668.38;5013570;28;20037;-64
2023/09/03 02:25:28;;;;;;;1.70;0.80;;;;;;;17.34;90.21;101683.22;5013695;28;20112;-65
2023/09/03 02:27:53;;;;;;;1.55;0.88;;;;;;;17.37;90.33;101695.28;5007643;28;20033;-64
2023/09/03 02:30:20;;;;;;;2.10;1.38;;;;;;;17.37;89.50;101700.75;5031319;28;20692;-65
2023/09/03 02:32:46;;;;;;;1.88;1.10;;;;;;;17.27;89.47;101693.25;5012466;28;20033;-65
2023/09/03 02:35:32;;;;;;;2.70;1.15;;;;;;;17.15;89.99;101697.03;5007747;28;20116;-65
2023/09/03 02:37:57;;;;;;;3.78;1.10;;;;;;;17.22;90.01;101707.22;4926090;29;20043;-64
2023/09/03 02:40:23;;;;;;;1.30;1.10;;;;;;;17.19;90.43;101706.00;4936694;29;20634;-64
2023/09/03 02:42:48;;;;;;;1.90;1.02;;;;;;;17.20;90.49;101707.59;4927953;29;20158;-64
2023/09/03 02:45:14;;;;;;;1.65;0.90;;;;;;;17.21;90.32;101711.88;4930918;29;20091;-65
2023/09/03 02:47:39;;;;;;;0.90;0.73;;;;;;;17.24;90.15;101726.69;4926906;29;20470;-64
2023/09/03 02:50:05;;;;;;;6.20;1.25;;;;;;;17.24;90.71;101730.19;4927349;29;20511;-64
2023/09/03 02:52:31;;;;;;;1.70;1.10;;;;;;;17.25;90.63;101737.19;4924145;29;20518;-65
2023/09/03 02:54:57;;;;;;;2.03;1.15;;;;;;;17.31;90.57;101741.16;4937516;29;20062;-67
2023/09/03 02:57:22;;;;;;;1.70;1.20;;;;;;;17.36;90.25;101738.09;4937980;29;20059;-64
2023/09/03 02:59:48;;;;;;;2.80;1.20;;;;;;;17.34;90.61;101745.88;4935723;29;20059;-65
2023/09/03 03:02:13;;;;;;;1.63;1.17;;;;;;;17.38;90.45;101757.56;4923718;29;20099;-63
2023/09/03 03:04:39;;;;;;;3.22;1.30;;;;;;;17.40;90.60;101763.41;4916051;29;20126;-65
2023/09/03 03:07:04;;;;;;;2.75;1.35;;;;;;;17.40;90.69;101762.66;4931566;28;20043;-65
2023/09/03 03:09:30;;;;;;;2.05;0.90;;;;;;;17.45;90.59;101762.31;4926256;29;20083;-65
2023/09/03 03:11:56;;;;;;;2.22;1.40;;;;;;;17.44;90.84;101761.50;4931160;29;20043;-65
2023/09/03 03:14:22;;;;;;;4.10;1.38;;;;;;;17.41;90.65;101761.47;4951590;28;20041;-65
2023/09/03 03:16:48;;;;;;;3.03;1.40;;;;;;;17.25;90.88;101750.81;5009178;28;20033;-65
2023/09/03 03:19:15;;;;;;;2.20;1.25;;;;;;;17.30;91.68;101766.84;5013176;28;20026;-64
2023/09/03 03:21:41;;;;;;;2.08;1.10;;;;;;;17.27;91.45;101759.38;5007709;28;20534;-65
2023/09/03 03:24:08;;;;;;;2.00;1.35;;;;;;;17.14;92.44;101760.81;5012915;28;20073;-63
2023/09/03 03:26:37;;;;;;;4.65;1.55;;;;;;;17.19;92.45;101765.16;5005148;28;20109;-64
2023/09/03 03:29:04;;;;;;;1.85;1.30;;;;;;;17.19;91.87;101770.59;5032588;28;20025;-65
2023/09/03 03:31:34;;;;;;;1.92;1.25;;;;;;;17.22;91.94;101775.28;5007542;28;20038;-64
2023/09/03 03:34:00;;;;;;;4.18;1.30;;;;;;;17.25;91.50;101780.00;4995596;28;20037;-64
2023/09/03 03:36:29;;;;;;;5.43;1.40;;;;;;;17.22;91.54;101776.06;5007232;28;20364;-63
2023/09/03 03:38:55;;;;;;;1.55;0.90;;;;;;;17.21;91.74;101771.75;5001700;28;20087;-65
2023/09/03 03:41:21;;;;;;;2.33;1.33;;;;;;;17.25;91.51;101769.88;5016558;28;20503;-65
2023/09/03 03:44:11;;;;;;;2.33;1.25;;;;;;;17.12;90.98;101776.72;5002355;28;20111;-64
2023/09/03 03:46:37;;;;;;;3.15;1.13;;;;;;;17.10;91.46;101779.03;4937509;28;20553;-64
2023/09/03 03:49:06;;;;;;;1.42;1.00;;;;;;;17.05;91.38;101765.75;4947601;28;20043;-65
2023/09/03 03:51:31;;;;;;;1.80;1.00;;;;;;;17.04;90.50;101770.41;4948410;28;20619;-65
2023/09/03 03:54:17;;;;;;;1.23;1.00;;;;;;;17.01;90.79;101776.59;4955658;28;20038;-64
2023/09/03 03:56:42;;;;;;;3.13;2.03;;;;;;;16.92;90.13;101767.94;4890015;29;20424;-64
2023/09/03 03:59:08;;;;;;;2.08;1.30;;;;;;;16.83;90.67;101751.09;4907360;29;20043;-65
2023/09/03 04:01:34;;;;;;;2.25;1.27;;;;;;;16.77;90.68;101754.50;4904224;29;20059;-64
2023/09/03 04:03:59;;;;;;;1.90;1.30;;;;;;;16.74;90.00;101758.75;4901335;29;20044;-65
2023/09/03 04:06:27;;;;;;;2.13;1.58;;;;;;;16.72;89.93;101766.53;4912349;29;20036;-64
2023/09/03 04:08:52;;;;;;;2.10;1.42;;;;;;;16.68;90.49;101770.34;4906730;29;20036;-65
2023/09/03 04:11:19;;;;;;;2.15;1.30;;;;;;;16.67;89.95;101775.00;4910708;29;20728;-65
2023/09/03 04:13:45;;;;;;;1.30;1.20;;;;;;;16.55;89.00;101761.59;4906866;29;20058;-65
2023/09/03 04:16:15;;;;;;;2.40;1.40;;;;;;;16.43;90.08;101767.25;4907249;29;20048;-65
2023/09/03 04:18:43;;;;;;;1.48;1.10;;;;;;;16.48;90.28;101771.56;4922170;29;20028;-64
2023/09/03 04:21:09;;;;;;;3.80;1.38;;;;;;;16.46;90.31;101787.47;4899692;29;20040;-65
2023/09/03 04:23:34;;;;;;;1.38;1.17;;;;;;;16.43;90.48;101780.84;4933321;28;20061;-65
2023/09/03 04:26:02;;;;;;;1.33;0.93;;;;;;;16.46;90.26;101780.09;4962580;28;20041;-64
2023/09/03 04:28:50;;;;;;;4.28;1.88;;;;;;;16.46;90.40;101788.25;4961268;28;20170;-63
2023/09/03 04:31:16;;;;;;;2.38;1.30;;;;;;;16.42;90.51;101792.06;4924843;29;20102;-65
2023/09/03 04:33:43;;;;;;;1.38;1.08;;;;;;;16.44;91.25;101793.28;4944885;28;20574;-65
2023/09/03 04:36:10;;;;;;;3.63;1.40;;;;;;;16.49;91.20;101797.66;4963116;28;20050;-65
2023/09/03 04:38:35;;;;;;;4.57;1.75;;;;;;;16.47;90.77;101800.72;4984040;28;20684;-65
2023/09/03 04:41:04;;;;;;;2.65;1.08;;;;;;;16.47;91.29;101808.09;4974353;28;20046;-65
2023/09/03 04:43:30;;;;;;;2.55;1.48;;;;;;;16.49;91.56;101828.34;4982272;28;20101;-65
2023/09/03 04:45:56;;;;;;;2.78;1.58;;;;;;;16.51;91.03;101836.91;4964156;28;20046;-64
2023/09/03 04:48:22;;;;;;;1.73;1.25;;;;;;;16.55;90.69;101845.16;4964723;28;20037;-65
2023/09/03 04:50:48;;;;;;;2.40;2.03;;;;;;;16.49;90.54;101847.38;4966607;28;20791;-65
2023/09/03 04:53:14;;;;;;;2.33;1.58;;;;;;;16.45;90.97;101856.63;4968740;28;20034;-65
2023/09/03 04:55:41;;;;;;;2.05;1.38;;;;;;;16.35;91.77;101851.78;4957953;28;20089;-65
2023/09/03 04:58:07;;;;;;;1.83;1.25;;;;;;;16.28;92.82;101858.66;4965593;28;20030;-65
2023/09/03 05:00:33;;;;;;;2.60;1.20;;;;;;;16.41;92.63;101856.56;4966516;28;20133;-65
2023/09/03 05:02:59;;;;;;;1.98;1.15;;;;;;;16.43;92.53;101853.47;4964975;28;20460;-65
2023/09/03 05:05:25;;;;;;;1.63;1.45;;;;;;;16.47;92.50;101857.03;4977239;28;20509;-65
2023/09/03 05:07:51;;;;;;;2.15;1.50;;;;;;;16.50;92.15;101856.31;4996772;28;20049;-65
2023/09/03 05:10:17;;;;;;;4.00;1.30;;;;;;;16.53;92.45;101844.72;5013042;28;20111;-65
2023/09/03 05:12:44;;;;;;;2.20;1.30;;;;;;;16.54;92.74;101855.25;4997670;28;20500;-65
2023/09/03 05:15:13;;;;;;;2.60;1.50;;;;;;;16.61;92.38;101843.66;5015881;28;20056;-65
2023/09/03 05:17:40;;;;;;;2.20;1.55;;;;;;;16.56;92.23;101852.16;5010585;28;20519;-65
2023/09/03 05:20:08;;;;;;;3.80;1.48;;;;;;;16.58;92.79;101855.28;5011631;28;20096;-64
2023/09/03 05:22:34;;;;;;;4.45;1.80;;;;;;;16.61;92.57;101854.53;5029947;28;20030;-65
2023/09/03 05:25:00;;;;;;;2.38;1.63;;;;;;;16.56;92.21;101847.50;5032940;28;20091;-65
2023/09/03 05:27:28;;;;;;;2.58;1.27;;;;;;;16.52;93.22;101851.31;5012616;28;20116;-65
2023/09/03 05:29:54;;;;;;;5.45;1.90;;;;;;;16.54;92.17;101859.88;5003243;28;20063;-65
2023/09/03 05:32:19;;;;;;;1.63;1.27;;;;;;;16.49;92.20;101858.25;5011868;28;20484;-65
2023/09/03 05:34:45;;;;;;;2.08;1.25;;;;;;;16.52;92.21;101856.75;5004368;28;20026;-65
2023/09/03 05:37:11;;;;;;;3.97;1.85;;;;;;;16.38;92.90;101868.16;5010530;28;20060;-65
2023/09/03 05:39:36;;;;;;;2.55;1.40;;;;;;;16.48;92.93;101866.75;5011528;28;20053;-65
2023/09/03 05:42:05;;;;;;;2.38;1.40;;;;;;;16.60;92.56;101859.22;4995405;28;20049;-65
2023/09/03 05:44:30;;;;;;;4.00;1.55;;;;;;;16.66;92.38;101863.19;5002452;28;20381;-65
2023/09/03 05:46:56;;;;;;;2.50;1.73;;;;;;;16.72;93.07;101878.06;5013703;28;20053;-65
2023/09/03 05:49:22;;;;;;;3.35;1.77;;;;;;;16.80;92.57;101873.50;5016287;28;20021;-65
2023/09/03 05:51:48;;;;;;;3.20;1.85;;;;;;;16.86;92.91;101859.22;5012196;28;20102;-65
2023/09/03 05:54:14;;;;;;;3.53;2.22;;;;;;;16.89;92.74;101855.78;5003652;28;20539;-65
2023/09/03 05:56:39;;;;;;;3.33;2.33;;;;;;;16.90;93.32;101853.81;5012325;28;20095;-65
2023/09/03 05:59:05;;;;;;;3.95;1.77;;;;;;;16.94;93.44;101847.28;5011166;28;20021;-65
2023/09/03 06:01:33;;;;;;;2.85;1.80;;;;;;;17.00;93.62;101840.34;4989104;28;20536;-65
2023/09/03 06:04:02;;;;;;;5.07;2.00;;;;;;;17.05;93.23;101850.91;5005915;28;20041;-65
2023/09/03 06:06:28;;;;;;;4.22;2.17;;;;;;;17.11;93.06;101852.16;5006107;28;20025;-65
2023/09/03 06:08:54;;;;;;;5.07;1.77;;;;;;;17.20;93.39;101859.28;5010147;28;20034;-65
2023/09/03 06:11:20;;;;;;;3.55;1.60;;;;;;;17.26;93.12;101865.97;5025385;28;20593;-65
2023/09/03 06:13:46;;;;;;;3.55;1.88;;;;;;;17.30;93.45;101870.31;5027291;28;20603;-65
2023/09/03 06:16:11;;;;;;;5.13;1.40;;;;;;;17.41;93.25;101873.94;5028173;28;20071;-65
2023/09/03 06:18:37;;;;;;;4.63;2.10;;;;;;;17.49;93.18;101888.47;5024580;28;20048;-65
2023/09/03 06:21:02;;;;;;;1.85;1.45;;;;;;;17.57;93.29;101882.75;5019758;28;20121;-65
2023/09/03 06:23:28;;;;;;;3.85;2.05;;;;;;;17.58;93.28;101884.28;5025043;28;20160;-65
2023/09/03 06:25:53;;;;;;;2.03;1.30;;;;;;;17.63;93.38;101878.53;5028275;28;20072;-65
2023/09/03 06:28:18;;;;;;;3.05;1.88;;;;;;;17.68;93.13;101885.56;5029045;28;20040;-65
2023/09/03 06:30:44;;;;;;;3.03;1.73;;;;;;;17.69;93.77;101879.75;5026345;28;20083;-65
2023/09/03 06:33:11;;;;;;;2.40;1.60;;;;;;;17.77;93.86;101889.56;5012199;28;20045;-66
2023/09/03 06:35:37;;;;;;;2.42;1.73;;;;;;;17.85;93.56;101902.13;5008983;28;20041;-66
2023/09/03 06:38:02;;;;;;;2.22;1.38;;;;;;;17.92;93.85;101890.53;5025106;28;20029;-65
2023/09/03 06:40:28;;;;;;;2.50;1.65;;;;;;;18.04;94.05;101880.13;5033876;28;20072;-66
2023/09/03 06:42:53;;;;;;;2.33;1.42;;;;;;;18.15;93.53;101874.78;5027606;28;20515;-65
2023/09/03 06:45:19;;;;;;;2.53;1.48;;;;;;;18.20;93.76;101884.53;5025356;28;20506;-66
2023/09/03 06:47:45;;;;;;;4.88;1.80;;;;;;;18.39;93.83;101889.78;5021877;28;20128;-66
2023/09/03 06:50:11;;;;;;;5.47;1.48;;;;;;;18.63;93.72;101902.88;5002143;28;20446;-65
2023/09/03 06:52:37;;;;;;;2.83;1.70;;;;;;;18.86;93.42;101901.50;5025129;28;20506;-65
2023/09/03 06:55:04;;;;;;;6.57;1.58;;;;;;;19.10;92.57;101900.06;5027498;28;20029;-66
2023/09/03 06:57:31;;;;;;;3.55;1.45;;;;;;;19.32;91.78;101907.22;5028437;28;20037;-66
2023/09/03 06:59:56;;;;;;;2.83;1.48;;;;;;;19.50;90.99;101908.09;5026249;28;20531;-66
2023/09/03 07:02:22;;;;;;;2.33;1.30;;;;;;;19.64;89.78;101919.09;5025186;28;20039;-66
2023/09/03 07:04:48;;;;;;;2.25;1.30;;;;;;;19.71;88.87;101924.59;5020928;28;20080;-66
2023/09/03 07:07:14;;;;;;;1.70;1.35;;;;;;;19.85;88.65;101928.53;5029598;28;20522;-66
2023/09/03 07:09:39;;;;;;;1.58;1.20;;;;;;;20.00;88.05;101925.44;5007830;28;20091;-66
2023/09/03 07:12:05;;;;;;;2.00;1.10;;;;;;;20.24;87.55;101937.63;5017111;28;20095;-65
2023/09/03 07:14:32;;;;;;;2.95;1.05;;;;;;;20.42;85.88;101933.75;5027078;28;20022;-66
2023/09/03 07:16:59;;;;;;;1.67;0.95;;;;;;;20.57;84.42;101937.28;5022174;28;20037;-66
2023/09/03 07:19:25;;;;;;;2.75;1.10;;;;;;;20.62;84.39;101939.63;5028656;28;20116;-66
2023/09/03 07:21:51;;;;;;;1.45;0.88;;;;;;;20.81;82.96;101936.47;5024233;28;20025;-66
2023/09/03 07:24:16;;;;;;;2.30;1.20;;;;;;;21.00;82.42;101938.03;5026856;28;20022;-66
2023/09/03 07:26:42;;;;;;;0.77;0.70;;;;;;;21.08;80.79;101948.59;5017173;28;20404;-66
2023/09/03 07:29:07;;;;;;;3.22;0.80;;;;;;;21.18;79.67;101936.84;5030372;28;20049;-66
2023/09/03 07:31:33;;;;;;;1.35;0.95;;;;;;;21.29;78.76;101940.31;5028600;28;20476;-65
2023/09/03 07:33:59;;;;;;;0.88;0.80;;;;;;;21.36;77.95;101940.31;5010088;28;20045;-66
2023/09/03 07:36:25;;;;;;;3.97;1.13;;;;;;;21.52;77.73;101937.91;5018713;28;20373;-66
2023/09/03 07:38:50;;;;;;;0.68;0.52;;;;;;;21.66;77.69;101937.06;5027532;28;20053;-65
2023/09/03 07:41:16;;;;;;;0.73;0.52;;;;;;;21.75;76.67;101931.16;5029693;28;20026;-66
2023/09/03 07:43:42;;;;;;;1.63;0.70;;;;;;;21.89;76.66;101939.34;5019822;28;20113;-65
2023/09/03 07:46:07;;;;;;;6.15;0.50;;;;;;;22.06;75.33;101938.47;5025457;28;20060;-65
2023/09/03 07:48:34;;;;;;;1.30;0.47;;;;;;;22.26;74.62;101942.25;5025370;28;20466;-66
2023/09/03 07:50:59;;;;;;;0.80;0.60;;;;;;;22.38;74.26;101953.53;5021062;28;20053;-65
2023/09/03 07:53:25;;;;;;;0.50;0.40;;;;;;;22.53;72.47;101962.44;5015407;28;20061;-65
2023/09/03 07:55:50;;;;;;;1.88;0.82;;;;;;;22.59;72.00;101965.59;5014074;28;20064;-65
2023/09/03 07:58:16;;;;;;;5.57;2.17;;;;;;;22.71;72.06;101976.06;5009450;28;20095;-69
2023/09/03 08:00:41;;;;;;;1.73;0.55;;;;;;;22.70;71.61;101966.28;4999955;28;20060;-67
2023/09/03 08:03:07;;;;;;;0.80;0.47;;;;;;;22.71;72.42;101974.09;5023847;28;20755;-61
2023/09/03 08:05:32;;;;;;;0.57;0.47;;;;;;;22.90;71.74;101970.78;5028610;28;20037;-61
2023/09/03 08:07:58;;;;;;;0.80;0.60;;;;;;;23.00;71.67;101978.16;5020705;28;20037;-58
2023/09/03 08:10:23;;;;;;;4.00;0.60;;;;;;;23.17;70.37;101976.44;5014744;28;20065;-55
2023/09/03 08:12:50;;;;;;;5.18;0.88;;;;;;;23.34;69.63;101989.25;5026880;28;20037;-60
2023/09/03 08:15:16;;;;;;;1.05;0.50;;;;;;;23.38;69.52;101983.72;5002059;28;20025;-58
2023/09/03 08:17:41;;;;;;;0.35;0.35;;;;;;;23.56;69.42;101973.28;5019796;28;20124;-58
2023/09/03 08:20:07;;;;;;;1.15;0.60;;;;;;;23.63;68.17;101971.25;5030059;28;20041;-58
2023/09/03 08:22:33;;;;;;;0.63;0.30;;;;;;;23.64;67.68;101970.03;5000719;28;20024;-58
2023/09/03 08:24:58;;;;;;;0.50;0.32;;;;;;;23.78;67.57;101974.59;5029957;28;20025;-61
2023/09/03 08:27:24;;;;;;;0.73;0.57;;;;;;;23.86;67.46;101976.06;5034584;28;20400;-59
2023/09/03 08:29:49;;;;;;;0.43;0.35;;;;;;;23.96;66.45;101986.16;5026096;28;20017;-62
2023/09/03 08:32:15;;;;;;;0.20;0.20;;;;;;;23.98;66.48;101975.50;5025942;28;20033;-60
2023/09/03 08:34:40;;;;;;;0.73;0.45;;;;;;;24.18;64.06;101987.44;5020272;28;20478;-60
2023/09/03 08:37:06;;;;;;;1.15;0.45;;;;;;;24.12;62.72;101980.84;5027002;28;20025;-61
2023/09/03 08:39:31;;;;;;;0.52;0.20;;;;;;;23.93;63.38;101984.22;5029388;28;20037;-62
2023/09/03 08:41:58;;;;;;;0.40;0.38;;;;;;;23.90;64.58;101983.09;5033710;28;20047;-62
2023/09/03 08:44:34;;;;;;;0.20;0.20;;;;;;;24.04;64.85;101982.91;5029951;28;20037;-59
2023/09/03 08:47:02;;;;;;;0.45;0.30;;;;;;;24.23;64.02;101994.47;5031352;28;20044;-62
2023/09/03 08:49:32;;;;;;;1.00;0.35;;;;;;;24.04;62.83;101991.16;5040113;28;21330;-61
2023/09/03 08:51:58;;;;;;;0.60;0.30;;;;;;;24.00;62.42;101993.16;5023099;28;20049;-63
2023/09/03 08:54:24;;;;;;;0.40;0.30;;;;;;;23.97;63.24;101985.72;5024645;28;20059;-64
2023/09/03 08:56:50;;;;;;;0.40;0.30;;;;;;;24.06;64.73;101997.03;5008785;28;20037;-61
2023/09/03 08:59:16;;;;;;;0.82;0.20;;;;;;;24.18;63.83;101993.72;5017545;28;20451;-63
2023/09/03 09:01:43;;;;;;;0.57;0.20;;;;;;;24.20;64.15;101987.81;5022366;28;20083;-61
2023/09/03 09:04:09;;;;;;;1.27;0.40;;;;;;;24.26;63.61;101988.13;5031258;28;20040;-58
2023/09/03 09:06:35;;;;;;;0.75;0.20;;;;;;;24.27;61.66;101987.72;5031344;28;20049;-57
2023/09/03 09:09:02;;;;;;;0.60;0.45;;;;;;;24.18;62.29;101993.72;5031238;28;20022;-58
2023/09/03 09:11:34;;;;;;;0.30;0.30;;;;;;;24.31;63.24;101987.66;5038908;28;20025;-59
2023/09/03 09:14:20;;;;;;;0.35;0.30;;;;;;;24.56;63.53;101991.59;5026901;28;20040;-59
2023/09/03 09:16:45;;;;;;;0.30;0.30;;;;;;;24.78;62.16;101992.84;4925638;29;20052;-61
2023/09/03 09:19:15;;;;;;;0.60;0.22;;;;;;;24.98;61.60;101995.66;4926770;29;20035;-61
2023/09/03 09:21:41;;;;;;;0.82;0.45;;;;;;;24.99;59.82;102005.47;4925122;29;20052;-61
2023/09/03 09:24:06;;;;;;;0.93;0.40;;;;;;;25.20;60.11;101996.84;4928754;29;20123;-61
2023/09/03 09:26:32;;;;;;;0.30;0.30;;;;;;;25.42;58.10;101997.22;4920657;29;20035;-59
2023/09/03 09:29:03;;;;;;;0.30;0.20;;;;;;;25.49;58.37;101992.34;4926497;29;20090;-55
2023/09/03 09:31:30;;;;;;;4.00;0.40;;;;;;;25.40;58.43;101994.91;4931387;29;20403;-66
2023/09/03 09:33:56;;;;;;;2.38;0.40;;;;;;;25.41;56.94;101995.69;4930926;29;20135;-69
2023/09/03 09:36:21;;;;;;;0.60;0.30;;;;;;;25.47;56.81;102005.03;4930214;29;20027;-64
2023/09/03 09:38:47;;;;;;;0.50;0.22;;;;;;;25.58;55.87;102000.06;4927520;29;20115;-65
2023/09/03 09:41:26;;;;;;;0.50;0.45;;;;;;;25.77;54.71;102008.34;4933413;29;20047;-64
2023/09/03 09:43:52;;;;;;;0.63;0.30;;;;;;;25.94;54.97;101995.38;4931096;29;20435;-62
2023/09/03 09:46:28;;;;;;;0.45;0.30;;;;;;;25.93;54.50;101988.31;4925515;29;20037;-67
2023/09/03 09:48:58;;;;;;;1.08;0.35;;;;;;;25.88;55.01;102002.59;4929055;29;20036;-62
2023/09/03 09:51:25;;;;;;;1.45;0.45;;;;;;;25.79;54.82;102010.69;4931214;29;20095;-60
2023/09/03 09:53:59;;;;;;;1.10;0.22;;;;;;;25.50;56.14;102006.94;4976380;28;20393;-61
2023/09/03 09:56:35;;;;;;;0.22;0.22;;;;;;;25.30;56.68;102006.13;5029048;28;20042;-62
2023/09/03 09:59:02;;;;;;;0.43;0.30;;;;;;;25.21;57.63;102009.41;5032176;28;20033;-62
2023/09/03 10:01:42;;;;;;;1.83;0.40;;;;;;;25.28;57.79;102003.00;5037370;28;20032;-60
2023/09/03 10:04:07;;;;;;;1.73;0.50;;;;;;;25.35;57.70;102017.44;5030320;28;20484;-61
2023/09/03 10:06:34;;;;;;;0.35;0.35;;;;;;;25.42;55.90;102008.25;5017604;28;20065;-60
2023/09/03 10:09:00;;;;;;;0.93;0.57;;;;;;;25.51;54.87;102017.53;5021959;28;20026;-60
2023/09/03 10:11:25;;;;;;;1.05;0.40;;;;;;;25.62;55.33;102017.34;5027852;28;20026;-60
2023/09/03 10:13:51;;;;;;;0.70;0.45;;;;;;;25.65;54.57;102022.00;5034048;28;20476;-61
2023/09/03 10:16:21;;;;;;;0.88;0.52;;;;;;;25.51;54.82;102020.31;5014146;28;20032;-60
2023/09/03 10:18:48;;;;;;;0.43;0.30;;;;;;;25.45;54.97;102035.81;5010937;28;20693;-60
2023/09/03 10:21:20;;;;;;;0.60;0.30;;;;;;;25.37;53.94;102033.56;5016801;28;20037;-61
2023/09/03 10:23:48;;;;;;;;;;;;;;;25.29;54.47;102029.38;5024723;28;20116;-60
2023/09/03 10:26:23;;;;;;;0.30;0.30;;;;;;;25.45;53.97;102040.56;5018205;28;20415;-59
2023/09/03 10:28:55;;;;;;;2.35;0.28;;;;;;;25.57;53.00;102034.41;5023627;28;20026;-60
2023/09/03 10:31:23;;;;;;;0.43;0.22;;;;;;;25.54;53.54;102038.00;5024928;28;20116;-60
2023/09/03 10:33:49;;;;;;;0.32;0.32;;;;;;;25.71;54.13;102039.63;5030768;28;20079;-60
2023/09/03 10:36:37;;;;;;;0.98;0.60;;;;;;;25.90;53.14;102036.88;5016532;28;20459;-60
2023/09/03 10:39:22;;;;;;;2.50;0.50;;;;;;;25.75;54.86;102043.09;4964111;28;20039;-60
2023/09/03 10:41:48;;;;;;;1.50;0.35;;;;;;;25.81;53.91;102044.16;4947890;28;20134;-60
2023/09/03 10:44:16;;;;;;;0.30;0.30;;;;;;;25.63;55.87;102047.28;4966642;28;20125;-60
2023/09/03 10:47:01;;;;;;;0.28;0.28;;;;;;;25.55;54.95;102031.28;4958622;28;20035;-59
2023/09/03 10:49:43;;;;;;;0.60;0.50;;;;;;;25.46;54.86;102042.09;4969735;28;20486;-58
2023/09/03 10:52:37;;;;;;;1.02;0.40;;;;;;;25.42;54.08;102044.13;4968994;28;20035;-61
2023/09/03 10:55:20;;;;;;;0.55;0.35;;;;;;;25.41;53.72;102046.13;4965441;28;20854;-60
2023/09/03 10:58:08;;;;;;;0.40;0.30;;;;;;;25.42;54.15;102036.66;4968445;28;20057;-59
2023/09/03 11:00:34;;;;;;;0.20;0.20;;;;;;;25.65;53.88;102036.59;4953869;28;20038;-61
2023/09/03 11:03:16;;;;;;;0.20;0.20;;;;;;;25.95;54.38;102038.38;4964478;28;20401;-61
2023/09/03 11:06:21;;;;;;;0.40;0.40;;;;;;;26.20;54.34;102046.94;4963971;28;20042;-60
2023/09/03 11:08:58;;;;;;;1.15;0.50;;;;;;;26.28;53.78;102048.34;4965319;28;20119;-60
2023/09/03 11:11:25;;;;;;;0.32;0.30;;;;;;;26.46;51.87;102040.41;4963521;28;20073;-62
2023/09/03 11:13:52;;;;;;;0.65;0.45;;;;;;;26.37;52.32;102047.72;4968648;28;20405;-62
2023/09/03 11:16:18;;;;;;;0.52;0.30;;;;;;;26.36;53.74;102044.22;5001687;28;20080;-62
2023/09/03 11:18:48;;;;;;;1.13;0.50;;;;;;;26.39;52.42;102046.09;5025427;28;20072;-62
2023/09/03 11:21:14;;;;;;;0.50;0.50;;;;;;;26.39;51.67;102039.78;5024440;28;20483;-62
2023/09/03 11:23:39;;;;;;;1.00;0.43;;;;;;;26.30;51.85;102043.16;5013836;28;20057;-59
2023/09/03 11:26:13;;;;;;;0.57;0.47;;;;;;;26.26;52.59;102050.75;5021718;28;20069;-61
2023/09/03 11:28:38;;;;;;;0.50;0.35;;;;;;;26.36;52.59;102044.22;5020104;28;20468;-61
2023/09/03 11:31:04;;;;;;;1.42;0.47;;;;;;;26.42;52.44;102039.72;5019773;28;20029;-59